createdAt,value
2018-05-29T08:26:14.994Z,49.90
2018-05-29T08:29:36.649Z,50.20
2018-05-29T08:32:04.173Z,50.20
2018-05-29T08:34:31.665Z,49.40
2018-05-29T08:36:59.194Z,49.10
2018-05-29T08:39:26.738Z,49.00
2018-05-29T08:41:54.215Z,49.20
2018-05-29T08:44:22.843Z,48.50
2018-05-29T08:46:50.955Z,48.50
2018-05-29T08:49:18.464Z,48.20
2018-05-29T08:51:45.976Z,47.90
2018-05-29T08:56:48.298Z,47.30
2018-05-29T08:59:15.798Z,46.90
2018-05-29T09:01:43.302Z,47.10
2018-05-29T09:04:11.606Z,46.90
2018-05-29T09:06:39.854Z,46.70
2018-05-29T09:09:08.132Z,46.40
2018-05-29T09:11:36.396Z,47.00
2018-05-29T09:14:04.734Z,47.10
2018-05-29T09:16:32.241Z,46.30
2018-05-29T09:19:00.542Z,45.30
2018-05-29T09:21:28.036Z,45.30
2018-05-29T09:23:56.609Z,46.20
2018-05-29T09:26:24.111Z,45.50
2018-05-29T09:28:51.704Z,44.70
2018-05-29T09:31:19.205Z,44.80
2018-05-29T09:33:46.705Z,44.30
2018-05-29T09:36:14.974Z,43.50
2018-05-29T09:38:43.242Z,43.50
2018-05-29T09:41:10.752Z,43.40
2018-05-29T09:43:38.243Z,43.60
2018-05-29T09:46:05.755Z,42.10
2018-05-29T09:48:33.257Z,42.70
2018-05-29T09:51:00.783Z,42.90
2018-05-29T09:53:28.386Z,43.00
2018-05-29T09:55:55.919Z,42.40
2018-05-29T09:58:23.419Z,40.70
2018-05-29T10:00:57.521Z,41.30
2018-05-29T10:03:25.102Z,40.10
2018-05-29T10:05:53.376Z,39.70
2018-05-29T10:08:21.674Z,38.60
2018-05-29T10:10:50.006Z,38.60
2018-05-29T10:13:17.547Z,37.30
2018-05-29T10:15:45.065Z,37.60
2018-05-29T10:18:13.335Z,38.90
2018-05-29T10:20:42.263Z,39.10
2018-05-29T10:23:09.853Z,39.10
2018-05-29T10:25:37.346Z,38.80
2018-05-29T10:28:05.628Z,37.60
2018-05-29T10:30:33.901Z,36.90
2018-05-29T10:33:02.222Z,36.80
2018-05-29T10:35:29.718Z,36.80
2018-05-29T10:37:58.144Z,37.40
2018-05-29T10:40:25.710Z,36.90
2018-05-29T10:42:53.362Z,36.60
2018-05-29T10:45:21.464Z,35.90
2018-05-29T10:47:49.005Z,36.40
2018-05-29T10:50:16.547Z,37.00
2018-05-29T10:52:44.054Z,35.40
2018-05-29T10:55:12.122Z,34.00
2018-05-29T10:57:39.874Z,34.10
2018-05-29T11:00:07.397Z,33.20
2018-05-29T11:02:34.893Z,33.10
2018-05-29T11:05:02.406Z,34.30
2018-05-29T11:07:30.091Z,33.90
2018-05-29T11:09:57.597Z,34.20
2018-05-29T11:12:25.117Z,32.70
2018-05-29T11:14:52.689Z,33.30
2018-05-29T11:17:20.243Z,32.70
2018-05-29T11:19:48.229Z,33.70
2018-05-29T11:22:15.744Z,33.90
2018-05-29T11:24:43.326Z,34.10
2018-05-29T11:27:11.881Z,33.50
2018-05-29T11:29:44.290Z,33.40
2018-05-29T11:32:11.847Z,33.40
2018-05-29T11:34:39.348Z,33.90
2018-05-29T11:37:06.884Z,34.60
2018-05-29T11:39:34.402Z,35.10
2018-05-29T11:42:01.906Z,34.40
2018-05-29T11:44:30.293Z,34.70
2018-05-29T11:46:57.832Z,34.70
2018-05-29T11:49:25.348Z,34.90
2018-05-29T11:51:52.871Z,33.40
2018-05-29T11:54:20.388Z,33.90
2018-05-29T11:56:47.913Z,33.40
2018-05-29T11:59:15.449Z,34.90
2018-05-29T12:01:43.045Z,35.20
2018-05-29T12:04:11.387Z,35.10
2018-05-29T12:06:38.895Z,35.20
2018-05-29T12:09:06.388Z,35.20
2018-05-29T12:11:34.741Z,35.40
2018-05-29T12:14:02.241Z,34.90
2018-05-29T12:16:29.837Z,36.10
2018-05-29T12:18:57.329Z,36.30
2018-05-29T12:21:25.155Z,36.10
2018-05-29T12:24:03.995Z,36.00
2018-05-29T12:26:32.532Z,36.00
2018-05-29T12:29:01.202Z,35.20
2018-05-29T12:31:32.926Z,34.30
2018-05-29T12:34:00.439Z,34.80
2018-05-29T12:36:32.189Z,33.90
2018-05-29T12:39:00.619Z,35.30
2018-05-29T12:41:28.142Z,34.40
2018-05-29T12:43:56.112Z,34.80
2018-05-29T12:46:24.712Z,34.20
2018-05-29T12:48:52.223Z,34.50
2018-05-29T12:51:19.745Z,34.40
2018-05-29T12:53:48.368Z,33.10
2018-05-29T12:56:19.725Z,33.10
2018-05-29T12:58:51.364Z,32.60
2018-05-29T13:01:18.898Z,33.70
2018-05-29T13:03:48.014Z,30.70
2018-05-29T13:06:16.499Z,31.80
2018-05-29T13:08:44.002Z,31.50
2018-05-29T13:11:11.546Z,32.50
2018-05-29T13:13:39.071Z,32.50
2018-05-29T13:16:07.021Z,32.20
2018-05-29T13:18:36.022Z,30.60
2018-05-29T13:21:03.561Z,30.50
2018-05-29T13:23:31.857Z,31.50
2018-05-29T13:25:59.393Z,31.50
2018-05-29T13:28:27.725Z,32.00
2018-05-29T13:30:55.314Z,31.80
2018-05-29T13:33:23.189Z,32.00
2018-05-29T13:35:50.744Z,33.30
2018-05-29T13:38:18.320Z,32.40
2018-05-29T13:40:45.965Z,32.30
2018-05-29T13:43:13.482Z,32.90
2018-05-29T13:45:42.205Z,33.40
2018-05-29T13:48:09.724Z,33.60
2018-05-29T13:50:37.269Z,33.60
2018-05-29T13:53:04.869Z,32.90
2018-05-29T13:55:32.364Z,32.20
2018-05-29T13:58:01.081Z,31.60
2018-05-29T14:13:28.642Z,31.50
2018-05-29T14:15:56.169Z,32.20
2018-05-29T14:18:26.077Z,31.50
2018-05-29T14:20:54.373Z,31.00
2018-05-29T14:23:21.886Z,30.90
2018-05-29T14:25:49.397Z,30.40
2018-05-29T14:28:16.897Z,31.20
2018-05-29T14:30:44.605Z,30.80
2018-05-29T14:33:12.882Z,31.00
2018-05-29T14:35:41.172Z,31.10
2018-05-29T14:38:08.681Z,31.00
2018-05-29T14:40:40.153Z,31.50
2018-05-29T14:43:07.666Z,31.70
2018-05-29T14:58:40.293Z,31.60
2018-05-29T15:01:08.628Z,32.50
2018-05-29T15:03:36.151Z,32.40
2018-05-29T15:06:04.070Z,32.50
2018-05-29T15:08:31.655Z,32.80
2018-05-29T15:10:59.940Z,33.60
2018-05-29T15:13:27.883Z,33.60
2018-05-29T15:15:55.405Z,34.20
2018-05-29T15:18:22.915Z,34.80
2018-05-29T15:20:55.345Z,35.60
2018-05-29T15:23:22.905Z,35.60
2018-05-29T15:25:50.426Z,36.00
2018-05-29T15:28:18.703Z,36.10
2018-05-29T15:30:47.011Z,36.30
2018-05-29T15:33:14.548Z,36.20
2018-05-29T15:35:42.053Z,36.90
2018-05-29T15:38:09.586Z,37.10
2018-05-29T15:40:37.087Z,37.90
2018-05-29T15:43:05.557Z,37.50
2018-05-29T15:45:33.394Z,37.40
2018-05-29T15:48:00.909Z,38.20
2018-05-29T15:50:33.290Z,38.30
2018-05-29T15:53:05.705Z,38.20
2018-05-29T15:55:33.565Z,38.20
2018-05-29T15:58:01.952Z,38.10
2018-05-29T16:00:29.974Z,38.00
2018-05-29T16:02:58.277Z,38.40
2018-05-29T16:05:25.844Z,38.40
2018-05-29T16:07:53.340Z,38.80
2018-05-29T16:10:21.533Z,39.00
2018-05-29T16:12:49.049Z,41.30
2018-05-29T16:15:16.579Z,43.50
2018-05-29T16:17:44.841Z,45.50
2018-05-29T16:20:13.113Z,46.30
2018-05-29T16:22:41.741Z,47.10
2018-05-29T16:25:10.566Z,47.10
2018-05-29T16:27:40.405Z,47.50
2018-05-29T16:30:08.766Z,48.10
2018-05-29T16:45:37.281Z,48.10
2018-05-29T16:48:04.788Z,52.70
2018-05-29T16:50:32.318Z,52.10
2018-05-29T16:52:59.853Z,51.70
2018-05-29T16:55:27.408Z,51.40
2018-05-29T16:57:54.948Z,50.90
2018-05-29T17:00:22.481Z,51.10
2018-05-29T17:02:50.197Z,51.60
2018-05-29T17:05:22.559Z,51.30
2018-05-29T17:07:50.089Z,52.10
2018-05-29T17:23:17.678Z,52.10
2018-05-29T17:25:47.064Z,53.40
2018-05-29T17:28:16.967Z,52.20
2018-05-29T17:30:44.756Z,52.20
2018-05-29T17:33:13.950Z,51.30
2018-05-29T17:35:42.249Z,51.00
2018-05-29T17:38:09.776Z,51.10
2018-05-29T17:40:38.050Z,49.70
2018-05-29T17:43:06.836Z,50.10
2018-05-29T17:45:35.113Z,49.10
2018-05-29T17:48:07.374Z,49.30
2018-05-29T17:50:34.959Z,49.20
2018-05-29T18:02:47.512Z,49.40
2018-05-29T18:05:15.022Z,53.90
2018-05-29T18:07:42.747Z,54.30
2018-05-29T18:10:11.017Z,54.10
2018-05-29T18:12:38.526Z,54.00
2018-05-29T18:15:06.075Z,54.50
2018-05-29T18:17:33.890Z,53.70
2018-05-29T18:20:01.428Z,53.80
2018-05-29T18:22:28.932Z,53.80
2018-05-29T18:24:57.269Z,53.40
2018-05-29T18:27:24.807Z,53.30
2018-05-29T18:29:52.343Z,53.40
2018-05-29T18:32:19.857Z,53.50
2018-05-29T18:34:47.398Z,54.20
2018-05-29T18:37:15.857Z,53.30
2018-05-29T18:39:43.410Z,52.60
2018-05-29T18:42:10.931Z,53.30
2018-05-29T18:44:40.032Z,54.60
2018-05-29T18:47:09.085Z,55.80
2018-05-29T18:49:37.045Z,55.80
2018-05-29T18:52:05.318Z,56.60
2018-05-29T18:54:32.857Z,57.10
2018-05-29T18:57:00.410Z,57.20
2018-05-29T18:59:32.723Z,58.20
2018-05-29T19:02:01.125Z,58.20
2018-05-29T19:04:32.986Z,58.00
2018-05-29T19:07:00.545Z,58.60
2018-05-29T19:09:28.088Z,58.90
2018-05-29T19:11:55.624Z,59.50
2018-05-29T19:14:24.427Z,59.70
2018-05-29T19:16:56.525Z,60.00
2018-05-29T19:19:24.066Z,59.90
2018-05-29T19:21:52.129Z,60.00
2018-05-29T19:24:19.650Z,60.00
2018-05-29T19:26:48.780Z,59.80
2018-05-29T19:29:16.356Z,59.80
2018-05-29T19:31:43.898Z,59.90
2018-05-29T19:47:15.428Z,59.50
2018-05-29T19:49:43.002Z,61.00
2018-05-29T19:52:10.517Z,60.00
2018-05-29T19:54:38.818Z,58.70
2018-05-29T19:57:06.407Z,58.60
2018-05-29T19:59:34.963Z,58.80
2018-05-29T20:02:02.534Z,57.90
2018-05-29T20:04:34.443Z,56.70
2018-05-29T20:07:01.997Z,54.00
2018-05-29T20:09:34.400Z,50.50
2018-05-29T20:12:02.677Z,50.70
2018-05-29T20:14:31.734Z,50.30
2018-05-29T20:16:59.247Z,50.30
2018-05-29T20:19:27.336Z,50.20
2018-05-29T20:24:26.357Z,48.70
2018-05-29T20:26:58.238Z,49.10
2018-05-29T20:29:25.771Z,48.70
2018-05-29T20:31:54.364Z,48.70
2018-05-29T20:34:21.909Z,49.30
2018-05-29T20:36:50.181Z,49.30
2018-05-29T20:39:17.689Z,49.30
2018-05-29T20:41:45.446Z,49.00
2018-05-29T20:44:12.977Z,49.70
2018-05-29T20:46:40.538Z,50.40
2018-05-29T20:49:08.124Z,50.40
2018-05-29T20:51:35.625Z,50.30
2018-05-29T20:54:03.205Z,50.00
2018-05-29T20:56:31.052Z,50.60
2018-05-29T20:58:59.329Z,50.60
2018-05-29T21:01:27.629Z,50.70
2018-05-29T21:03:59.246Z,50.50
2018-05-29T21:06:28.426Z,50.90
2018-05-29T21:08:56.529Z,50.90
2018-05-29T21:11:27.970Z,51.00
2018-05-29T21:13:56.297Z,53.80
2018-05-29T21:16:23.875Z,58.20
2018-05-29T21:18:51.445Z,58.90
2018-05-29T21:21:20.898Z,60.90
2018-05-29T21:23:48.903Z,59.60
2018-05-29T21:36:01.456Z,60.20
2018-05-29T21:38:28.973Z,61.80
2018-05-29T21:41:01.594Z,61.80
2018-05-29T21:43:29.153Z,62.00
2018-05-29T21:45:56.666Z,57.50
2018-05-29T21:48:24.177Z,57.40
2018-05-29T21:50:51.673Z,57.50
2018-05-29T21:53:19.464Z,58.80
2018-05-29T21:55:47.758Z,58.90
2018-05-29T21:58:15.318Z,58.80
2018-05-29T22:00:42.855Z,63.70
2018-05-29T22:03:15.117Z,69.30
2018-05-29T22:05:42.980Z,69.30
2018-05-29T22:08:20.529Z,73.00
2018-05-29T22:10:48.806Z,71.90
2018-05-29T22:13:16.327Z,72.60
2018-05-29T22:15:44.610Z,77.90
2018-05-29T22:18:12.902Z,78.80
2018-05-29T22:20:40.424Z,78.80
2018-05-29T22:23:08.129Z,76.30
2018-05-29T22:25:39.385Z,76.10
2018-05-29T22:28:06.878Z,73.90
2018-05-29T22:30:34.610Z,76.50
2018-05-29T22:33:03.089Z,78.60
2018-05-29T22:35:30.586Z,78.60
2018-05-29T22:37:58.098Z,77.70
2018-05-29T22:40:25.591Z,77.60
2018-05-29T22:42:53.230Z,80.20
2018-05-29T22:45:24.867Z,80.60
2018-05-29T22:47:52.386Z,81.00
2018-05-29T22:50:19.908Z,82.50
2018-05-29T22:52:51.353Z,82.10
2018-05-29T22:55:19.198Z,84.20
2018-05-29T22:57:47.085Z,83.80
2018-05-29T23:00:15.163Z,83.80
2018-05-29T23:02:42.652Z,84.40
2018-05-29T23:05:10.315Z,85.60
2018-05-29T23:07:37.805Z,85.50
2018-05-29T23:10:06.120Z,83.80
2018-05-29T23:12:33.644Z,83.70
2018-05-29T23:15:02.071Z,83.80
2018-05-29T23:34:15.457Z,88.80
2018-05-29T23:36:43.748Z,88.00
2018-05-29T23:39:11.338Z,88.00
2018-05-29T23:41:38.849Z,87.40
2018-05-29T23:44:11.537Z,86.50
2018-05-29T23:46:40.509Z,86.70
2018-05-29T23:49:08.022Z,86.60
2018-05-29T23:51:35.523Z,85.90
2018-05-29T23:54:03.158Z,86.00
2018-05-29T23:56:30.667Z,84.70
2018-05-29T23:58:58.942Z,83.50
